Time;durP1;ratioP1;P1;durP2;ratioP2;P2;SDS_P1;SDS_P2;PMS_P1;PMS_P2;Temp;Humidity;BMP_temperature;BMP_pressure;BME280_temperature;BME280_humidity;BME280_pressure;Samples;Min_cycle;Max_cycle;Signal;HPM_P1;HPM_P2
2021/06/25 00:01:52;;;;;;;1.60;0.87;;;24.60;59.00;;;;;;4993291;28;20390;-65
2021/06/25 00:04:19;;;;;;;1.65;0.90;;;24.60;59.00;;;;;;4992813;28;20935;-66
2021/06/25 00:06:46;;;;;;;1.30;0.82;;;24.60;58.90;;;;;;4993119;28;20532;-65
2021/06/25 00:09:11;;;;;;;1.60;0.90;;;24.60;59.00;;;;;;4993075;28;20412;-65
2021/06/25 00:11:37;;;;;;;1.20;0.80;;;24.60;59.00;;;;;;4993015;28;20395;-65
2021/06/25 00:14:04;;;;;;;1.15;0.80;;;24.60;59.00;;;;;;4993152;28;20378;-66
2021/06/25 00:16:30;;;;;;;1.30;0.90;;;24.60;59.00;;;;;;4992458;28;20496;-66
2021/06/25 00:18:56;;;;;;;1.40;0.80;;;24.60;59.00;;;;;;4991782;28;20941;-66
2021/06/25 00:21:21;;;;;;;1.27;0.70;;;24.60;59.00;;;;;;4992927;28;20894;-65
2021/06/25 00:23:47;;;;;;;1.30;0.80;;;24.60;59.00;;;;;;4992940;28;20414;-65
2021/06/25 00:26:13;;;;;;;1.20;0.80;;;24.60;59.10;;;;;;4992372;28;20751;-66
2021/06/25 00:28:38;;;;;;;1.58;0.95;;;24.60;59.10;;;;;;4991503;28;20402;-65
2021/06/25 00:31:04;;;;;;;1.13;0.80;;;24.60;59.00;;;;;;4992851;28;20453;-66
2021/06/25 00:33:30;;;;;;;0.90;0.70;;;24.60;59.00;;;;;;4991134;28;20394;-66
2021/06/25 00:35:55;;;;;;;1.47;0.73;;;24.50;59.00;;;;;;4992768;28;20423;-65
2021/06/25 00:38:21;;;;;;;1.30;0.80;;;24.60;59.10;;;;;;4992263;28;20464;-66
2021/06/25 00:40:47;;;;;;;1.00;0.70;;;24.50;59.00;;;;;;4992583;28;20401;-66
2021/06/25 00:43:12;;;;;;;1.33;0.80;;;24.50;59.00;;;;;;4991343;28;20406;-66
2021/06/25 00:45:38;;;;;;;1.20;0.73;;;24.60;59.00;;;;;;4992435;28;20452;-65
2021/06/25 00:48:04;;;;;;;0.90;0.70;;;24.50;58.90;;;;;;4992592;28;20390;-65
2021/06/25 00:50:33;;;;;;;1.38;0.70;;;24.50;58.90;;;;;;4991283;28;20450;-66
2021/06/25 00:53:00;;;;;;;1.20;0.60;;;24.50;59.00;;;;;;4992163;28;20905;-66
2021/06/25 00:55:28;;;;;;;1.05;0.80;;;24.50;58.90;;;;;;4992208;28;20422;-66
2021/06/25 00:57:54;;;;;;;1.00;0.80;;;24.50;58.90;;;;;;4992576;28;20382;-66
2021/06/25 01:00:21;;;;;;;1.40;0.70;;;24.50;58.90;;;;;;4991966;28;20901;-66
2021/06/25 01:02:47;;;;;;;1.33;0.70;;;24.50;59.00;;;;;;4992257;28;20872;-66
2021/06/25 01:05:15;;;;;;;1.17;0.70;;;24.50;58.90;;;;;;4992342;28;20545;-65
2021/06/25 01:07:40;;;;;;;0.90;0.60;;;24.50;58.90;;;;;;4991861;28;20440;-66
2021/06/25 01:10:09;;;;;;;0.70;0.57;;;24.50;59.00;;;;;;4992209;28;20849;-66
2021/06/25 01:12:35;;;;;;;1.20;0.73;;;24.50;59.10;;;;;;4991945;28;20893;-66
2021/06/25 01:15:01;;;;;;;0.90;0.50;;;24.40;58.90;;;;;;4991016;28;20531;-66
2021/06/25 01:17:35;;;;;;;1.30;0.80;;;24.50;59.00;;;;;;4990919;28;20807;-66
2021/06/25 01:20:04;;;;;;;1.17;0.70;;;24.40;58.90;;;;;;4992058;28;20418;-66
2021/06/25 01:22:34;;;;;;;2.17;0.70;;;24.50;58.90;;;;;;4991588;28;20386;-66
2021/06/25 01:25:23;;;;;;;1.15;0.60;;;24.50;58.90;;;;;;4992232;28;20497;-66
2021/06/25 01:27:52;;;;;;;1.08;0.52;;;24.40;58.90;;;;;;4992064;28;20742;-66
2021/06/25 01:30:27;;;;;;;1.80;0.70;;;24.40;58.90;;;;;;4990312;28;20778;-66
2021/06/25 01:32:53;;;;;;;1.00;0.60;;;24.40;58.90;;;;;;4992200;28;20378;-66
2021/06/25 01:35:19;;;;;;;1.15;0.70;;;24.40;58.90;;;;;;4991840;28;20398;-66
2021/06/25 01:37:45;;;;;;;0.88;0.60;;;24.40;58.90;;;;;;4991952;28;20398;-66
2021/06/25 01:40:14;;;;;;;1.15;0.52;;;24.40;58.90;;;;;;4991817;28;20399;-65
2021/06/25 01:42:42;;;;;;;0.87;0.53;;;24.40;58.90;;;;;;4991748;28;20419;-66
2021/06/25 01:45:15;;;;;;;1.02;0.70;;;24.40;58.90;;;;;;4992009;28;20410;-66
2021/06/25 01:47:43;;;;;;;1.02;0.60;;;24.40;58.90;;;;;;4991986;28;20823;-66
2021/06/25 01:50:12;;;;;;;0.70;0.50;;;24.40;58.90;;;;;;4991843;28;20426;-66
2021/06/25 01:52:43;;;;;;;0.85;0.70;;;24.40;58.90;;;;;;4991725;28;20901;-65
2021/06/25 01:55:09;;;;;;;0.93;0.60;;;24.30;58.80;;;;;;4991731;28;20846;-65
2021/06/25 01:57:34;;;;;;;0.75;0.45;;;24.30;58.80;;;;;;5006942;28;20490;-66
2021/06/25 02:00:00;;;;;;;0.80;0.60;;;24.30;58.90;;;;;;4991839;28;20446;-65
2021/06/25 02:02:26;;;;;;;0.93;0.50;;;24.40;58.90;;;;;;4991284;28;20485;-66
2021/06/25 02:04:52;;;;;;;0.93;0.60;;;24.40;58.90;;;;;;4991724;28;20416;-66
2021/06/25 02:07:17;;;;;;;0.80;0.40;;;24.40;58.90;;;;;;4991686;28;20422;-65
2021/06/25 02:09:43;;;;;;;0.90;0.50;;;24.30;58.90;;;;;;4991556;28;20425;-65
2021/06/25 02:12:09;;;;;;;0.80;0.50;;;24.30;58.90;;;;;;4990507;28;20401;-66
2021/06/25 02:14:35;;;;;;;1.00;0.50;;;24.30;58.90;;;;;;4991158;28;20473;-65
2021/06/25 02:17:01;;;;;;;0.73;0.50;;;24.30;58.90;;;;;;4991757;28;20886;-66
2021/06/25 02:19:26;;;;;;;0.60;0.40;;;24.30;58.90;;;;;;4994210;28;20398;-66
2021/06/25 02:21:52;;;;;;;0.97;0.57;;;24.30;58.90;;;;;;4994791;28;20395;-66
2021/06/25 02:24:17;;;;;;;0.77;0.40;;;24.30;58.90;;;;;;4994164;28;20443;-66
2021/06/25 02:26:43;;;;;;;0.73;0.52;;;24.30;58.90;;;;;;4994971;28;20810;-66
2021/06/25 02:29:09;;;;;;;0.90;0.60;;;24.30;58.90;;;;;;4995069;28;20406;-65
2021/06/25 02:31:35;;;;;;;0.80;0.47;;;24.30;58.90;;;;;;4994877;28;20406;-66
2021/06/25 02:34:00;;;;;;;0.77;0.50;;;24.30;58.90;;;;;;5010062;28;20457;-66
2021/06/25 02:36:26;;;;;;;0.68;0.50;;;24.30;58.90;;;;;;4994224;28;20406;-66
2021/06/25 02:38:52;;;;;;;1.13;0.50;;;24.30;58.90;;;;;;4994745;28;20399;-66
2021/06/25 02:41:19;;;;;;;0.70;0.50;;;24.30;58.90;;;;;;4994924;28;20395;-65
2021/06/25 02:43:45;;;;;;;0.68;0.47;;;24.30;58.90;;;;;;4994718;28;20403;-66
2021/06/25 02:46:11;;;;;;;1.00;0.60;;;24.20;58.80;;;;;;4994843;28;20534;-65
2021/06/25 02:48:36;;;;;;;0.70;0.47;;;24.30;58.90;;;;;;4994048;28;20404;-66
2021/06/25 02:51:02;;;;;;;0.80;0.40;;;24.20;58.80;;;;;;4994699;28;20415;-66
2021/06/25 02:53:28;;;;;;;0.70;0.40;;;24.20;58.80;;;;;;4993070;28;20439;-66
2021/06/25 02:55:53;;;;;;;0.60;0.40;;;24.30;58.80;;;;;;4994556;28;20410;-65
2021/06/25 02:58:24;;;;;;;0.85;0.40;;;24.30;58.90;;;;;;4994052;28;20386;-66
2021/06/25 03:00:53;;;;;;;0.60;0.50;;;24.30;58.90;;;;;;4994483;28;20889;-66
2021/06/25 03:03:19;;;;;;;0.80;0.50;;;24.20;58.80;;;;;;4993148;28;20394;-66
2021/06/25 03:05:46;;;;;;;0.63;0.30;;;24.30;58.80;;;;;;4994284;28;20390;-66
2021/06/25 03:08:13;;;;;;;0.70;0.43;;;24.20;58.80;;;;;;4994336;28;20395;-65
2021/06/25 03:10:45;;;;;;;2.00;0.40;;;24.20;59.40;;;;;;4993967;28;20770;-66
2021/06/25 03:13:11;;;;;;;0.88;0.45;;;24.20;59.10;;;;;;5009398;28;20438;-66
2021/06/25 03:15:37;;;;;;;0.93;0.50;;;24.20;58.70;;;;;;5009168;28;20442;-66
2021/06/25 03:18:03;;;;;;;1.70;0.40;;;24.20;58.60;;;;;;5009238;28;20456;-65
2021/06/25 03:20:29;;;;;;;2.25;0.50;;;24.20;58.30;;;;;;5008573;28;20921;-65
2021/06/25 03:22:54;;;;;;;1.70;0.40;;;24.20;58.10;;;;;;4994043;28;20394;-66
2021/06/25 03:25:20;;;;;;;1.60;0.43;;;24.20;58.00;;;;;;4993603;28;20411;-66
2021/06/25 03:27:46;;;;;;;2.10;0.40;;;24.20;58.40;;;;;;4993709;28;20445;-66
2021/06/25 03:30:12;;;;;;;0.70;0.40;;;24.20;58.40;;;;;;4993222;28;20850;-65
2021/06/25 03:32:38;;;;;;;0.90;0.40;;;24.20;58.20;;;;;;4993342;28;20451;-66
2021/06/25 03:35:05;;;;;;;0.50;0.30;;;24.20;57.90;;;;;;4993834;28;20886;-65
2021/06/25 03:37:31;;;;;;;2.05;0.30;;;24.10;57.90;;;;;;4993665;28;20395;-66
2021/06/25 03:39:57;;;;;;;1.10;0.50;;;24.20;58.00;;;;;;4993623;28;20759;-67
2021/06/25 03:42:23;;;;;;;0.40;0.20;;;24.20;58.00;;;;;;4993305;28;20386;-66
2021/06/25 03:44:49;;;;;;;0.90;0.40;;;24.10;57.90;;;;;;4993574;28;20398;-66
2021/06/25 03:47:14;;;;;;;3.03;0.50;;;24.10;58.00;;;;;;4992312;28;20395;-66
2021/06/25 03:49:40;;;;;;;0.80;0.30;;;24.10;57.70;;;;;;4993397;28;20857;-66
2021/06/25 03:52:07;;;;;;;1.13;0.30;;;24.10;57.90;;;;;;5008566;28;20395;-66
2021/06/25 03:54:33;;;;;;;2.90;0.40;;;24.10;57.80;;;;;;4992809;28;20422;-66
2021/06/25 03:56:59;;;;;;;3.85;0.50;;;24.10;57.50;;;;;;4993384;28;20398;-66
2021/06/25 03:59:25;;;;;;;5.15;0.50;;;24.10;57.90;;;;;;4993162;28;20394;-65
2021/06/25 04:01:52;;;;;;;8.20;0.60;;;24.10;58.10;;;;;;4993462;28;20386;-66
2021/06/25 04:04:18;;;;;;;4.63;0.60;;;24.10;57.70;;;;;;4991707;28;20434;-66
2021/06/25 04:06:44;;;;;;;2.65;0.40;;;24.10;57.90;;;;;;4992867;28;20398;-66
2021/06/25 04:09:10;;;;;;;4.40;0.40;;;24.10;57.60;;;;;;4993150;28;20902;-66
2021/06/25 04:11:35;;;;;;;3.88;0.40;;;24.10;58.50;;;;;;4993118;28;20434;-66
2021/06/25 04:14:01;;;;;;;2.13;0.40;;;24.10;57.60;;;;;;4992916;28;20394;-65
2021/06/25 04:16:27;;;;;;;2.22;0.30;;;24.00;57.70;;;;;;4992547;28;20438;-66
2021/06/25 04:18:52;;;;;;;1.20;0.33;;;24.00;57.40;;;;;;4993042;28;20518;-66
2021/06/25 04:21:21;;;;;;;1.58;0.40;;;24.00;57.20;;;;;;4993025;28;20390;-66
2021/06/25 04:23:47;;;;;;;1.33;0.40;;;24.00;57.20;;;;;;5007739;28;20399;-66
2021/06/25 04:26:13;;;;;;;1.50;0.30;;;24.00;57.10;;;;;;4991781;28;20489;-66
2021/06/25 04:28:38;;;;;;;1.53;0.40;;;24.00;57.00;;;;;;4991948;28;20469;-66
2021/06/25 04:31:04;;;;;;;1.20;0.30;;;23.90;57.00;;;;;;4992780;28;20739;-66
2021/06/25 04:33:30;;;;;;;5.47;0.40;;;23.90;56.90;;;;;;4992667;28;20398;-65
2021/06/25 04:35:56;;;;;;;1.10;0.30;;;23.90;56.90;;;;;;4992720;28;20461;-66
2021/06/25 04:38:22;;;;;;;2.65;0.35;;;23.90;56.70;;;;;;4992445;28;20390;-66
2021/06/25 04:40:48;;;;;;;0.50;0.30;;;23.90;56.70;;;;;;5007111;28;20952;-66
2021/06/25 04:43:15;;;;;;;0.82;0.30;;;23.90;56.90;;;;;;4992691;28;20751;-66
2021/06/25 04:45:42;;;;;;;1.42;0.30;;;23.90;56.60;;;;;;4992523;28;20395;-65
2021/06/25 04:48:13;;;;;;;2.35;0.40;;;23.90;56.80;;;;;;4992599;28;20418;-66
2021/06/25 04:50:41;;;;;;;1.88;0.60;;;23.90;56.70;;;;;;4991986;28;20917;-66
2021/06/25 04:53:07;;;;;;;1.80;0.40;;;23.90;56.80;;;;;;4992625;28;20413;-66
2021/06/25 04:55:42;;;;;;;2.22;0.30;;;23.90;56.70;;;;;;4992297;28;20452;-66
2021/06/25 04:58:14;;;;;;;3.35;0.40;;;23.90;56.70;;;;;;4992304;28;20422;-66
2021/06/25 05:00:40;;;;;;;3.17;0.40;;;23.90;56.70;;;;;;4991931;28;20398;-66
2021/06/25 05:03:07;;;;;;;2.40;0.30;;;23.80;56.70;;;;;;4992405;28;20806;-66
2021/06/25 05:05:33;;;;;;;2.20;0.40;;;23.90;56.90;;;;;;4992245;28;20402;-66
2021/06/25 05:07:59;;;;;;;2.70;0.40;;;23.90;56.90;;;;;;4992295;28;20387;-66
2021/06/25 05:10:25;;;;;;;1.30;0.30;;;23.90;57.00;;;;;;4991711;28;20418;-66
2021/06/25 05:12:51;;;;;;;1.65;0.40;;;23.90;57.10;;;;;;4992268;28;20390;-66
2021/06/25 05:15:16;;;;;;;1.30;0.30;;;23.90;57.00;;;;;;4992257;28;20409;-66
2021/06/25 05:17:42;;;;;;;1.10;0.40;;;23.90;57.10;;;;;;4992154;28;20401;-66
2021/06/25 05:20:09;;;;;;;0.80;0.30;;;23.80;57.10;;;;;;4992164;28;20404;-66
2021/06/25 05:22:34;;;;;;;0.65;0.30;;;23.90;57.20;;;;;;5006822;28;20386;-66
2021/06/25 05:25:00;;;;;;;2.30;0.30;;;23.90;57.20;;;;;;4992138;28;20414;-66
2021/06/25 05:27:26;;;;;;;1.50;0.30;;;23.80;57.20;;;;;;5007012;28;20394;-65
2021/06/25 05:29:52;;;;;;;0.50;0.30;;;23.80;57.30;;;;;;4991838;28;20513;-65
2021/06/25 05:32:19;;;;;;;1.00;0.30;;;23.80;57.30;;;;;;4992167;28;20393;-65
2021/06/25 05:34:45;;;;;;;0.82;0.30;;;23.80;57.10;;;;;;5006947;28;20843;-65
2021/06/25 05:37:12;;;;;;;1.13;0.40;;;23.80;57.00;;;;;;4992109;28;20444;-66
2021/06/25 05:39:38;;;;;;;1.58;0.40;;;23.60;55.70;;;;;;4991984;28;20805;-66
2021/06/25 05:42:04;;;;;;;2.63;0.40;;;23.50;56.40;;;;;;4990784;28;20391;-67
2021/06/25 05:44:30;;;;;;;0.80;0.40;;;23.50;56.90;;;;;;4991389;28;20522;-66
2021/06/25 05:46:55;;;;;;;2.47;0.50;;;23.50;57.20;;;;;;4991890;28;20721;-66
2021/06/25 05:49:21;;;;;;;1.50;0.50;;;23.50;56.80;;;;;;4990613;28;20422;-67
2021/06/25 05:51:47;;;;;;;1.17;0.43;;;23.50;57.20;;;;;;4983323;28;20421;-65
2021/06/25 05:54:12;;;;;;;1.48;0.40;;;23.50;57.20;;;;;;4973643;28;20518;-66
2021/06/25 05:56:38;;;;;;;1.43;0.40;;;23.50;57.50;;;;;;4974278;28;20495;-65
2021/06/25 05:59:04;;;;;;;1.20;0.47;;;23.50;57.50;;;;;;4975956;28;20420;-66
2021/06/25 06:01:30;;;;;;;1.40;0.50;;;23.50;57.40;;;;;;4976000;28;20397;-66
2021/06/25 06:03:56;;;;;;;1.40;0.30;;;23.60;57.80;;;;;;4976026;28;20401;-65
2021/06/25 06:06:21;;;;;;;2.20;0.40;;;23.50;58.00;;;;;;4975774;28;20447;-64
2021/06/25 06:08:47;;;;;;;0.80;0.40;;;23.50;58.50;;;;;;4975487;28;20396;-65
2021/06/25 06:11:13;;;;;;;1.10;0.35;;;23.50;57.70;;;;;;4975933;28;20432;-65
2021/06/25 06:13:39;;;;;;;3.33;0.30;;;23.50;57.60;;;;;;4975819;28;20534;-65
2021/06/25 06:16:05;;;;;;;1.90;0.50;;;23.60;57.70;;;;;;4975817;28;20400;-65
2021/06/25 06:18:36;;;;;;;0.73;0.30;;;23.60;57.70;;;;;;4975345;28;20392;-66
2021/06/25 06:21:02;;;;;;;0.80;0.40;;;23.60;57.60;;;;;;4975952;28;20447;-66
2021/06/25 06:31:46;;;;;;;1.85;0.43;;;23.60;57.80;;;;;;4975602;28;20490;-67
2021/06/25 06:34:13;;;;;;;1.08;0.47;;;23.60;57.60;;;;;;4975650;28;20396;-65
2021/06/25 06:39:07;;;;;;;1.13;0.50;;;23.60;57.70;;;;;;4975641;28;20400;-66
2021/06/25 06:41:34;;;;;;;0.97;0.43;;;23.60;57.70;;;;;;4990327;28;20451;-66
2021/06/25 06:44:00;;;;;;;1.13;0.40;;;23.60;57.70;;;;;;4975439;28;20896;-66
2021/06/25 06:46:26;;;;;;;0.77;0.40;;;23.60;57.90;;;;;;4975077;28;20397;-64
2021/06/25 06:48:53;;;;;;;1.15;0.40;;;23.60;57.90;;;;;;4974948;28;20400;-66
2021/06/25 06:51:19;;;;;;;1.37;0.57;;;23.60;58.00;;;;;;4975288;28;20404;-66
2021/06/25 06:53:45;;;;;;;1.15;0.40;;;23.60;57.90;;;;;;4974999;28;20400;-66
2021/06/25 06:56:12;;;;;;;0.80;0.40;;;23.60;58.00;;;;;;4975280;28;20407;-67
2021/06/25 06:58:39;;;;;;;0.88;0.50;;;23.60;58.00;;;;;;4974689;28;20420;-66
2021/06/25 07:01:06;;;;;;;1.38;0.60;;;23.60;58.00;;;;;;4975053;28;20796;-66
2021/06/25 07:03:32;;;;;;;1.55;0.43;;;23.60;58.00;;;;;;4974613;28;20479;-65
2021/06/25 07:05:57;;;;;;;0.90;0.40;;;23.60;57.90;;;;;;4974828;28;20424;-66
2021/06/25 07:08:23;;;;;;;1.20;0.50;;;23.60;58.50;;;;;;4974951;28;20752;-65
2021/06/25 07:10:49;;;;;;;1.10;0.57;;;23.60;58.00;;;;;;4989592;28;20467;-66
2021/06/25 07:13:15;;;;;;;1.65;0.40;;;23.60;58.00;;;;;;4989500;28;20392;-66
2021/06/25 07:15:41;;;;;;;2.28;0.50;;;23.60;57.70;;;;;;4974824;28;20407;-65
2021/06/25 07:18:07;;;;;;;1.07;0.50;;;23.50;57.80;;;;;;4989642;28;20756;-65
2021/06/25 07:20:33;;;;;;;4.88;0.50;;;23.60;57.90;;;;;;4974166;28;20400;-65
2021/06/25 07:23:00;;;;;;;1.95;0.52;;;23.50;57.90;;;;;;4974658;28;20398;-65
2021/06/25 07:25:26;;;;;;;2.13;0.60;;;23.50;57.90;;;;;;4989163;28;20542;-65
2021/06/25 07:27:51;;;;;;;1.10;0.50;;;23.50;58.00;;;;;;4974422;28;20479;-66
2021/06/25 07:30:17;;;;;;;0.60;0.30;;;23.50;57.80;;;;;;4974306;28;20780;-65
2021/06/25 07:32:43;;;;;;;1.52;0.40;;;23.50;57.90;;;;;;4973989;28;20392;-65
2021/06/25 07:35:09;;;;;;;0.63;0.33;;;23.50;58.50;;;;;;4974369;28;20404;-65
2021/06/25 07:37:35;;;;;;;0.77;0.38;;;23.50;58.00;;;;;;4988932;28;20877;-65
2021/06/25 07:40:01;;;;;;;1.30;0.32;;;23.50;58.00;;;;;;4974405;28;20400;-65
2021/06/25 07:42:27;;;;;;;1.20;0.40;;;23.50;58.00;;;;;;4972782;28;20396;-65
2021/06/25 07:44:52;;;;;;;1.20;0.45;;;23.60;58.00;;;;;;4973778;28;20388;-65
2021/06/25 07:47:18;;;;;;;1.08;0.50;;;23.50;58.20;;;;;;4974270;28;20422;-65
2021/06/25 07:49:44;;;;;;;1.30;0.40;;;23.50;58.20;;;;;;4974087;28;20411;-65
2021/06/25 07:52:10;;;;;;;0.75;0.40;;;23.50;58.30;;;;;;4974143;28;20400;-65
2021/06/25 07:54:37;;;;;;;0.60;0.30;;;23.50;58.20;;;;;;4973209;28;20943;-65
2021/06/25 07:57:03;;;;;;;0.82;0.45;;;23.50;58.30;;;;;;4973945;28;20421;-65
2021/06/25 07:59:29;;;;;;;0.70;0.40;;;23.60;58.20;;;;;;4973921;28;20432;-66
2021/06/25 08:01:54;;;;;;;1.10;0.47;;;23.50;58.40;;;;;;4973624;28;20404;-65
2021/06/25 08:04:20;;;;;;;1.00;0.40;;;23.60;58.30;;;;;;4973878;28;20797;-66
2021/06/25 08:06:46;;;;;;;0.80;0.40;;;23.60;58.10;;;;;;4973186;28;20815;-65
2021/06/25 08:09:11;;;;;;;0.73;0.40;;;23.50;58.00;;;;;;4973733;28;20404;-65
2021/06/25 08:11:37;;;;;;;0.80;0.30;;;23.50;57.90;;;;;;4972526;28;20438;-66
2021/06/25 08:14:06;;;;;;;0.90;0.45;;;23.50;57.80;;;;;;4973037;28;20424;-65
2021/06/25 08:16:32;;;;;;;0.95;0.40;;;23.50;57.80;;;;;;4972352;28;20408;-64
2021/06/25 08:18:58;;;;;;;1.10;0.30;;;23.50;57.70;;;;;;4973483;28;20399;-65
2021/06/25 08:21:28;;;;;;;0.60;0.40;;;23.50;57.70;;;;;;4973372;28;20419;-67
2021/06/25 08:23:55;;;;;;;0.60;0.30;;;23.50;57.80;;;;;;4973689;28;20447;-66
2021/06/25 08:26:21;;;;;;;0.65;0.30;;;23.60;57.70;;;;;;4973519;28;20800;-66
2021/06/25 08:28:47;;;;;;;1.17;0.40;;;23.60;58.20;;;;;;4962950;28;20410;-66
2021/06/25 08:31:13;;;;;;;0.95;0.40;;;23.60;58.00;;;;;;4960964;28;20402;-66
2021/06/25 08:33:39;;;;;;;1.08;0.40;;;23.60;58.00;;;;;;4963025;28;20907;-65
2021/06/25 08:36:06;;;;;;;1.40;0.40;;;23.50;57.90;;;;;;4972835;28;20495;-66
2021/06/25 08:38:32;;;;;;;2.00;0.60;;;23.60;57.90;;;;;;4971607;28;20431;-66
2021/06/25 08:40:58;;;;;;;0.97;0.40;;;23.50;58.10;;;;;;4972735;28;20396;-64
2021/06/25 08:43:25;;;;;;;0.63;0.30;;;23.60;58.20;;;;;;4971762;28;20411;-66
2021/06/25 08:45:51;;;;;;;1.27;0.50;;;23.60;58.00;;;;;;4972899;28;20986;-66
2021/06/25 08:48:17;;;;;;;0.80;0.40;;;23.60;58.20;;;;;;4972941;28;20396;-66
2021/06/25 08:50:49;;;;;;;0.70;0.40;;;23.60;57.90;;;;;;4972276;28;20420;-66
2021/06/25 08:53:15;;;;;;;1.67;0.43;;;23.60;58.00;;;;;;4987648;28;20768;-66
2021/06/25 08:55:43;;;;;;;0.87;0.40;;;23.60;58.00;;;;;;4972687;28;20415;-66
2021/06/25 08:58:17;;;;;;;0.85;0.40;;;23.60;58.10;;;;;;4972886;28;20396;-66
2021/06/25 09:00:44;;;;;;;0.80;0.40;;;23.60;58.10;;;;;;4972369;28;20458;-66
2021/06/25 09:03:27;;;;;;;0.82;0.43;;;23.60;57.70;;;;;;4972819;28;20385;-67
2021/06/25 09:06:09;;;;;;;1.35;0.40;;;23.60;58.20;;;;;;4972583;28;20404;-65
2021/06/25 09:08:35;;;;;;;1.40;0.50;;;23.60;57.60;;;;;;4972473;28;20403;-65
2021/06/25 09:11:21;;;;;;;1.20;0.50;;;23.60;57.50;;;;;;4972707;28;20420;-66
2021/06/25 09:13:54;;;;;;;1.88;0.50;;;23.60;57.30;;;;;;4972887;28;20454;-65
2021/06/25 09:16:34;;;;;;;1.40;0.40;;;23.60;57.40;;;;;;4972648;28;20404;-65
2021/06/25 09:19:01;;;;;;;1.13;0.47;;;23.60;57.10;;;;;;4971272;28;20443;-65
2021/06/25 09:21:30;;;;;;;0.90;0.40;;;23.60;57.10;;;;;;4987504;28;20403;-66
2021/06/25 09:23:56;;;;;;;0.90;0.50;;;23.60;56.80;;;;;;4972568;28;20744;-66
2021/06/25 09:26:28;;;;;;;0.63;0.40;;;23.70;56.60;;;;;;4971362;28;20400;-66
2021/06/25 09:29:11;;;;;;;1.50;0.50;;;23.70;56.60;;;;;;4975815;28;20471;-66
2021/06/25 09:31:37;;;;;;;0.60;0.40;;;23.70;56.50;;;;;;4975308;28;20478;-66
2021/06/25 09:34:03;;;;;;;0.70;0.47;;;23.70;56.60;;;;;;4976174;28;20868;-66
2021/06/25 09:36:35;;;;;;;0.50;0.40;;;23.70;56.70;;;;;;4976395;28;20400;-66
2021/06/25 09:39:02;;;;;;;0.77;0.40;;;23.70;56.70;;;;;;4976547;28;20404;-66
2021/06/25 09:41:28;;;;;;;0.57;0.28;;;23.70;56.50;;;;;;4975118;28;20400;-66
2021/06/25 09:43:58;;;;;;;1.40;0.40;;;23.70;56.40;;;;;;4975053;28;20400;-66
2021/06/25 09:46:31;;;;;;;1.30;0.40;;;23.70;56.30;;;;;;4976236;28;20427;-66
2021/06/25 09:49:04;;;;;;;0.73;0.40;;;23.70;56.30;;;;;;4976148;28;20427;-67
2021/06/25 09:51:30;;;;;;;1.00;0.50;;;23.70;56.30;;;;;;4976411;28;20943;-66
2021/06/25 09:54:06;;;;;;;0.90;0.50;;;23.70;56.20;;;;;;4976113;28;20466;-67
2021/06/25 09:56:36;;;;;;;1.40;0.30;;;23.70;55.70;;;;;;4975661;28;20816;-65
2021/06/25 10:01:53;;;;;;;0.60;0.30;;;23.70;56.30;;;;;;4976192;28;20391;-67
2021/06/25 10:04:36;;;;;;;1.10;0.40;;;23.70;55.20;;;;;;4976128;28;20443;-66
2021/06/25 10:07:16;;;;;;;2.60;0.30;;;23.70;55.30;;;;;;4976074;28;20407;-65
2021/06/25 10:09:44;;;;;;;1.20;0.30;;;23.70;55.50;;;;;;4975987;28;20416;-65
2021/06/25 10:12:11;;;;;;;1.35;0.40;;;23.70;55.50;;;;;;4976010;28;20376;-65
2021/06/25 10:14:38;;;;;;;1.25;0.40;;;23.70;55.50;;;;;;4975706;28;20396;-65
2021/06/25 10:17:05;;;;;;;0.77;0.40;;;23.70;55.70;;;;;;4975841;28;20495;-65
2021/06/25 10:19:32;;;;;;;0.93;0.32;;;23.70;55.70;;;;;;4975802;28;20884;-65
2021/06/25 10:22:02;;;;;;;1.45;0.40;;;23.70;55.70;;;;;;4975764;28;20876;-65
2021/06/25 10:24:30;;;;;;;0.80;0.40;;;23.70;55.70;;;;;;4975745;28;20796;-65
2021/06/25 10:26:57;;;;;;;0.70;0.35;;;23.70;55.60;;;;;;4975247;28;20483;-65
2021/06/25 10:29:25;;;;;;;4.82;0.98;;;23.70;55.40;;;;;;4975542;28;20423;-65
2021/06/25 10:31:51;;;;;;;3.08;0.90;;;23.80;55.50;;;;;;4975585;28;20399;-65
2021/06/25 10:34:17;;;;;;;2.90;0.88;;;23.80;55.30;;;;;;4974332;28;20741;-65
2021/06/25 10:36:43;;;;;;;4.05;0.80;;;23.80;55.50;;;;;;4975034;28;20459;-65
2021/06/25 10:39:11;;;;;;;4.82;0.80;;;23.90;55.50;;;;;;4974324;28;20420;-65
2021/06/25 10:42:10;;;;;;;6.57;1.00;;;23.90;55.60;;;;;;4975211;28;20412;-65
2021/06/25 10:44:55;;;;;;;4.75;0.80;;;23.90;56.00;;;;;;4976115;28;20458;-65
2021/06/25 10:47:28;;;;;;;4.97;0.80;;;23.90;56.40;;;;;;4975273;28;20409;-66
2021/06/25 10:50:03;;;;;;;7.00;1.42;;;24.00;56.50;;;;;;4974057;28;20424;-65
2021/06/25 10:52:30;;;;;;;4.60;0.98;;;24.00;56.60;;;;;;4975262;28;20393;-66
2021/06/25 10:55:18;;;;;;;4.80;1.00;;;24.10;56.60;;;;;;4989558;28;20455;-66
2021/06/25 10:57:50;;;;;;;80.05;32.15;;;24.10;56.80;;;;;;4973711;28;20487;-66
2021/06/25 11:00:26;;;;;;;29.33;13.57;;;24.10;57.30;;;;;;4975093;28;20407;-65
2021/06/25 11:02:53;;;;;;;21.03;8.77;;;24.10;57.10;;;;;;4972156;28;20475;-66
2021/06/25 11:05:22;;;;;;;23.43;9.03;;;24.20;57.10;;;;;;4972054;28;20416;-66
2021/06/25 11:07:49;;;;;;;19.77;8.52;;;24.20;57.00;;;;;;4988591;28;20495;-66
2021/06/25 11:10:24;;;;;;;17.30;6.05;;;24.20;56.60;;;;;;4973323;28;20435;-65
2021/06/25 11:13:04;;;;;;;17.52;6.63;;;24.20;57.10;;;;;;4974572;28;20391;-65
2021/06/25 11:15:32;;;;;;;17.02;6.07;;;24.20;57.40;;;;;;4974963;28;20843;-65
2021/06/25 11:18:00;;;;;;;15.65;6.60;;;24.20;57.20;;;;;;4974826;28;20420;-66
2021/06/25 11:20:30;;;;;;;14.45;5.63;;;24.30;57.30;;;;;;4974685;28;20397;-65
2021/06/25 11:23:14;;;;;;;15.05;5.50;;;24.30;57.30;;;;;;4974374;28;20503;-65
2021/06/25 11:26:01;;;;;;;16.75;5.70;;;24.30;57.70;;;;;;4974524;28;20404;-65
2021/06/25 11:28:29;;;;;;;14.77;5.72;;;24.30;57.90;;;;;;4974467;28;20396;-65
2021/06/25 11:31:00;;;;;;;14.07;4.50;;;24.30;58.00;;;;;;4973885;28;20514;-65
2021/06/25 11:33:28;;;;;;;11.48;3.30;;;24.30;58.20;;;;;;4989313;28;20396;-65
2021/06/25 11:35:56;;;;;;;7.30;3.70;;;24.30;57.40;;;;;;4974404;28;20470;-65
2021/06/25 11:38:59;;;;;;;8.45;3.13;;;24.40;58.30;;;;;;4974190;28;20946;-65
2021/06/25 11:41:29;;;;;;;6.80;2.75;;;24.40;58.30;;;;;;4973760;28;20939;-65
2021/06/25 11:43:59;;;;;;;7.57;2.80;;;24.40;57.80;;;;;;4974107;28;20404;-65
2021/06/25 11:46:26;;;;;;;8.10;2.40;;;24.40;58.70;;;;;;4972867;28;20451;-65
2021/06/25 11:48:59;;;;;;;7.00;2.10;;;24.40;58.90;;;;;;4973721;28;20399;-66
2021/06/25 11:51:34;;;;;;;5.28;1.85;;;24.40;59.80;;;;;;4973782;28;20427;-65
2021/06/25 11:54:02;;;;;;;5.00;2.00;;;24.40;59.40;;;;;;4973946;28;20463;-65
2021/06/25 11:56:28;;;;;;;5.85;2.22;;;24.40;58.00;;;;;;4988327;28;20416;-66
2021/06/25 11:59:13;;;;;;;4.10;1.85;;;24.30;57.50;;;;;;4973528;28;20396;-65
2021/06/25 12:02:01;;;;;;;5.68;1.77;;;24.30;58.30;;;;;;4973902;28;20401;-65
2021/06/25 12:04:35;;;;;;;4.65;1.52;;;24.40;58.70;;;;;;4973710;28;20892;-66
2021/06/25 12:07:01;;;;;;;5.03;1.60;;;24.40;59.30;;;;;;4973331;28;20412;-65
2021/06/25 12:09:51;;;;;;;5.80;1.60;;;24.50;59.60;;;;;;4972325;28;20412;-65
2021/06/25 12:12:25;;;;;;;6.35;1.80;;;24.40;59.00;;;;;;4997636;28;20867;-65
2021/06/25 12:14:53;;;;;;;4.10;1.55;;;24.40;58.50;;;;;;4973575;28;20479;-65
2021/06/25 12:17:19;;;;;;;3.05;1.40;;;24.40;58.70;;;;;;4972841;28;20415;-65
2021/06/25 12:19:57;;;;;;;4.15;1.60;;;24.30;58.80;;;;;;4981514;28;20384;-66
2021/06/25 12:22:23;;;;;;;5.43;1.55;;;24.30;58.20;;;;;;4979182;28;20526;-65
2021/06/25 12:24:54;;;;;;;2.90;1.30;;;24.40;58.90;;;;;;4981135;28;20481;-65
2021/06/25 12:27:33;;;;;;;3.53;1.25;;;24.30;57.80;;;;;;4980579;28;20400;-66
2021/06/25 12:30:03;;;;;;;4.28;1.40;;;24.30;58.00;;;;;;4980482;28;20435;-63
2021/06/25 12:32:29;;;;;;;4.18;1.48;;;24.30;57.80;;;;;;4997950;28;20394;-66
2021/06/25 12:34:58;;;;;;;2.90;1.30;;;24.30;57.50;;;;;;4992383;28;20751;-65
2021/06/25 12:37:24;;;;;;;2.22;1.00;;;24.30;57.40;;;;;;4970827;28;20487;-66
2021/06/25 12:39:50;;;;;;;2.58;1.30;;;24.30;57.60;;;;;;4967793;28;20483;-65
2021/06/25 12:42:22;;;;;;;2.25;1.08;;;24.30;57.40;;;;;;4972829;28;20880;-66
2021/06/25 12:44:52;;;;;;;3.13;1.08;;;24.30;57.30;;;;;;4972595;28;20404;-66
2021/06/25 12:47:18;;;;;;;1.85;0.80;;;24.30;56.90;;;;;;4987536;28;20531;-65
2021/06/25 12:49:43;;;;;;;2.43;1.00;;;24.30;57.40;;;;;;4977031;28;20507;-66
2021/06/25 12:52:23;;;;;;;2.25;0.95;;;24.30;56.80;;;;;;4989484;28;20401;-65
2021/06/25 12:54:50;;;;;;;2.80;0.90;;;24.20;56.70;;;;;;4990821;28;20481;-66
2021/06/25 12:57:19;;;;;;;3.78;1.10;;;24.20;56.50;;;;;;4990595;28;20437;-65
2021/06/25 12:59:51;;;;;;;2.50;1.08;;;24.20;56.40;;;;;;4992133;28;20501;-65
2021/06/25 13:02:18;;;;;;;2.05;0.90;;;24.20;56.40;;;;;;4991709;28;20422;-65
2021/06/25 13:04:43;;;;;;;1.70;0.80;;;24.20;56.40;;;;;;5006977;28;20494;-65